sensor_id;sensor_type;location;lat;lon;timestamp;temperature;humidity
26224;DHT22;14820;48.682;8.890;2023-03-14T00:01:17;9.80;99.90
26224;DHT22;14820;48.682;8.890;2023-03-14T00:03:43;9.80;99.90
26224;DHT22;14820;48.682;8.890;2023-03-14T00:06:10;9.70;99.90
26224;DHT22;14820;48.682;8.890;2023-03-14T00:08:36;9.70;99.90
26224;DHT22;14820;48.682;8.890;2023-03-14T00:11:07;9.70;99.90
26224;DHT22;14820;48.682;8.890;2023-03-14T00:13:33;9.70;99.90
26224;DHT22;14820;48.682;8.890;2023-03-14T00:16:06;9.60;99.90
26224;DHT22;14820;48.682;8.890;2023-03-14T00:18:33;9.60;99.90
26224;DHT22;14820;48.682;8.890;2023-03-14T00:21:00;9.60;99.90
26224;DHT22;14820;48.682;8.890;2023-03-14T00:23:27;9.50;99.90
26224;DHT22;14820;48.682;8.890;2023-03-14T00:25:53;9.50;99.90
26224;DHT22;14820;48.682;8.890;2023-03-14T00:28:19;9.50;99.90
26224;DHT22;14820;48.682;8.890;2023-03-14T00:30:44;9.50;99.90
26224;DHT22;14820;48.682;8.890;2023-03-14T00:33:10;9.50;99.90
26224;DHT22;14820;48.682;8.890;2023-03-14T00:35:35;9.50;99.90
26224;DHT22;14820;48.682;8.890;2023-03-14T00:38:01;9.40;99.90
26224;DHT22;14820;48.682;8.890;2023-03-14T00:40:26;9.40;99.90
26224;DHT22;14820;48.682;8.890;2023-03-14T00:42:52;9.40;99.90
26224;DHT22;14820;48.682;8.890;2023-03-14T00:45:18;9.50;99.90
26224;DHT22;14820;48.682;8.890;2023-03-14T00:47:43;9.40;99.90
26224;DHT22;14820;48.682;8.890;2023-03-14T00:50:11;9.40;99.90
26224;DHT22;14820;48.682;8.890;2023-03-14T00:52:37;9.40;99.90
26224;DHT22;14820;48.682;8.890;2023-03-14T00:55:03;9.40;99.90
26224;DHT22;14820;48.682;8.890;2023-03-14T00:57:29;9.40;99.90
26224;DHT22;14820;48.682;8.890;2023-03-14T00:59:55;9.40;99.90
26224;DHT22;14820;48.682;8.890;2023-03-14T01:02:21;9.40;99.90
26224;DHT22;14820;48.682;8.890;2023-03-14T01:04:50;9.40;99.90
26224;DHT22;14820;48.682;8.890;2023-03-14T01:07:16;9.50;99.90
26224;DHT22;14820;48.682;8.890;2023-03-14T01:09:42;9.40;99.90
26224;DHT22;14820;48.682;8.890;2023-03-14T01:12:07;9.50;99.90
26224;DHT22;14820;48.682;8.890;2023-03-14T01:14:33;9.50;99.90
26224;DHT22;14820;48.682;8.890;2023-03-14T01:16:58;9.50;99.90
26224;DHT22;14820;48.682;8.890;2023-03-14T01:19:27;9.60;99.90
26224;DHT22;14820;48.682;8.890;2023-03-14T01:21:54;9.50;99.90
26224;DHT22;14820;48.682;8.890;2023-03-14T01:24:20;9.50;99.90
26224;DHT22;14820;48.682;8.890;2023-03-14T01:26:46;9.50;99.90
26224;DHT22;14820;48.682;8.890;2023-03-14T01:29:11;9.50;99.90
26224;DHT22;14820;48.682;8.890;2023-03-14T01:31:37;9.50;99.90
26224;DHT22;14820;48.682;8.890;2023-03-14T01:34:03;9.50;99.90
26224;DHT22;14820;48.682;8.890;2023-03-14T01:36:29;9.60;99.90
26224;DHT22;14820;48.682;8.890;2023-03-14T01:38:55;9.60;99.90
26224;DHT22;14820;48.682;8.890;2023-03-14T01:41:23;9.50;99.90
26224;DHT22;14820;48.682;8.890;2023-03-14T01:43:50;9.50;99.90
26224;DHT22;14820;48.682;8.890;2023-03-14T01:48:48;9.40;99.90
26224;DHT22;14820;48.682;8.890;2023-03-14T01:51:33;9.40;99.90
26224;DHT22;14820;48.682;8.890;2023-03-14T01:54:12;9.40;99.90
26224;DHT22;14820;48.682;8.890;2023-03-14T01:56:42;9.30;99.90
26224;DHT22;14820;48.682;8.890;2023-03-14T01:59:10;9.30;99.90
26224;DHT22;14820;48.682;8.890;2023-03-14T02:01:36;9.30;99.90
26224;DHT22;14820;48.682;8.890;2023-03-14T02:04:04;9.30;99.90
26224;DHT22;14820;48.682;8.890;2023-03-14T02:06:48;9.30;99.90
26224;DHT22;14820;48.682;8.890;2023-03-14T02:09:15;9.30;99.90
26224;DHT22;14820;48.682;8.890;2023-03-14T02:11:41;9.30;99.90
26224;DHT22;14820;48.682;8.890;2023-03-14T02:14:07;9.30;99.90
26224;DHT22;14820;48.682;8.890;2023-03-14T02:16:35;9.30;99.90
26224;DHT22;14820;48.682;8.890;2023-03-14T02:19:01;9.20;99.90
26224;DHT22;14820;48.682;8.890;2023-03-14T02:21:38;9.20;99.90
26224;DHT22;14820;48.682;8.890;2023-03-14T02:24:15;9.20;99.90
26224;DHT22;14820;48.682;8.890;2023-03-14T02:29:29;9.20;99.90
26224;DHT22;14820;48.682;8.890;2023-03-14T02:31:56;9.20;99.90
26224;DHT22;14820;48.682;8.890;2023-03-14T02:34:23;9.20;99.90
26224;DHT22;14820;48.682;8.890;2023-03-14T02:36:49;9.10;99.90
26224;DHT22;14820;48.682;8.890;2023-03-14T02:39:21;9.10;99.90
26224;DHT22;14820;48.682;8.890;2023-03-14T02:41:47;9.10;99.90
26224;DHT22;14820;48.682;8.890;2023-03-14T02:44:14;9.10;99.90
26224;DHT22;14820;48.682;8.890;2023-03-14T02:46:40;9.10;99.90
26224;DHT22;14820;48.682;8.890;2023-03-14T02:49:12;9.10;99.90
26224;DHT22;14820;48.682;8.890;2023-03-14T02:51:39;9.10;99.90
26224;DHT22;14820;48.682;8.890;2023-03-14T02:54:06;9.10;99.90
26224;DHT22;14820;48.682;8.890;2023-03-14T02:56:32;9.10;99.90
26224;DHT22;14820;48.682;8.890;2023-03-14T02:58:57;9.00;99.90
26224;DHT22;14820;48.682;8.890;2023-03-14T03:01:23;9.00;99.90
26224;DHT22;14820;48.682;8.890;2023-03-14T03:03:49;9.00;99.90
26224;DHT22;14820;48.682;8.890;2023-03-14T03:06:15;9.00;99.90
26224;DHT22;14820;48.682;8.890;2023-03-14T03:08:40;8.90;99.90
26224;DHT22;14820;48.682;8.890;2023-03-14T03:11:06;9.00;99.90
26224;DHT22;14820;48.682;8.890;2023-03-14T03:13:32;9.00;99.90
26224;DHT22;14820;48.682;8.890;2023-03-14T03:15:58;8.90;99.90
26224;DHT22;14820;48.682;8.890;2023-03-14T03:18:23;8.90;99.90
26224;DHT22;14820;48.682;8.890;2023-03-14T03:20:49;8.80;99.90
26224;DHT22;14820;48.682;8.890;2023-03-14T03:23:14;8.80;99.90
26224;DHT22;14820;48.682;8.890;2023-03-14T03:25:40;8.80;99.90
26224;DHT22;14820;48.682;8.890;2023-03-14T03:28:06;8.80;99.90
26224;DHT22;14820;48.682;8.890;2023-03-14T03:30:37;8.80;99.90
26224;DHT22;14820;48.682;8.890;2023-03-14T03:33:03;8.80;99.90
26224;DHT22;14820;48.682;8.890;2023-03-14T03:35:29;8.90;99.90
26224;DHT22;14820;48.682;8.890;2023-03-14T03:37:54;8.80;99.90
26224;DHT22;14820;48.682;8.890;2023-03-14T03:40:20;8.80;99.90
26224;DHT22;14820;48.682;8.890;2023-03-14T03:42:45;8.80;99.90
26224;DHT22;14820;48.682;8.890;2023-03-14T03:45:12;8.70;99.90
26224;DHT22;14820;48.682;8.890;2023-03-14T03:47:38;8.80;99.90
26224;DHT22;14820;48.682;8.890;2023-03-14T03:50:04;8.80;99.90
26224;DHT22;14820;48.682;8.890;2023-03-14T03:52:29;8.70;99.90
26224;DHT22;14820;48.682;8.890;2023-03-14T03:54:55;8.70;99.90
26224;DHT22;14820;48.682;8.890;2023-03-14T03:57:21;8.70;99.90
26224;DHT22;14820;48.682;8.890;2023-03-14T03:59:46;8.60;99.90
26224;DHT22;14820;48.682;8.890;2023-03-14T04:02:12;8.60;99.90
26224;DHT22;14820;48.682;8.890;2023-03-14T04:04:38;8.70;99.90
26224;DHT22;14820;48.682;8.890;2023-03-14T04:07:04;8.60;99.90
26224;DHT22;14820;48.682;8.890;2023-03-14T04:09:30;8.60;99.90
26224;DHT22;14820;48.682;8.890;2023-03-14T04:11:56;8.60;99.90
26224;DHT22;14820;48.682;8.890;2023-03-14T04:14:22;8.60;99.90
26224;DHT22;14820;48.682;8.890;2023-03-14T04:16:48;8.60;99.90
26224;DHT22;14820;48.682;8.890;2023-03-14T04:19:13;8.60;99.90
26224;DHT22;14820;48.682;8.890;2023-03-14T04:21:39;8.60;99.90
26224;DHT22;14820;48.682;8.890;2023-03-14T04:24:14;8.50;99.90
26224;DHT22;14820;48.682;8.890;2023-03-14T04:26:39;8.50;99.90
26224;DHT22;14820;48.682;8.890;2023-03-14T04:29:05;8.50;99.90
26224;DHT22;14820;48.682;8.890;2023-03-14T04:31:31;8.50;99.90
26224;DHT22;14820;48.682;8.890;2023-03-14T04:33:56;8.60;99.90
26224;DHT22;14820;48.682;8.890;2023-03-14T04:36:22;8.50;99.90
26224;DHT22;14820;48.682;8.890;2023-03-14T04:38:48;8.50;99.90
26224;DHT22;14820;48.682;8.890;2023-03-14T04:41:13;8.50;99.90
26224;DHT22;14820;48.682;8.890;2023-03-14T04:43:39;8.50;99.90
26224;DHT22;14820;48.682;8.890;2023-03-14T04:46:05;8.50;99.90
26224;DHT22;14820;48.682;8.890;2023-03-14T04:48:31;8.50;99.90
26224;DHT22;14820;48.682;8.890;2023-03-14T04:50:56;8.50;99.90
26224;DHT22;14820;48.682;8.890;2023-03-14T04:53:22;8.50;99.90
26224;DHT22;14820;48.682;8.890;2023-03-14T04:55:53;8.50;99.90
26224;DHT22;14820;48.682;8.890;2023-03-14T04:58:19;8.50;99.90
26224;DHT22;14820;48.682;8.890;2023-03-14T05:00:45;8.50;99.90
26224;DHT22;14820;48.682;8.890;2023-03-14T05:03:10;8.40;99.90
26224;DHT22;14820;48.682;8.890;2023-03-14T05:05:36;8.50;99.90
26224;DHT22;14820;48.682;8.890;2023-03-14T05:08:02;8.50;99.90
26224;DHT22;14820;48.682;8.890;2023-03-14T05:10:28;8.40;99.90
26224;DHT22;14820;48.682;8.890;2023-03-14T05:12:53;8.50;99.90
26224;DHT22;14820;48.682;8.890;2023-03-14T05:15:19;8.50;99.90
26224;DHT22;14820;48.682;8.890;2023-03-14T05:17:44;8.40;99.90
26224;DHT22;14820;48.682;8.890;2023-03-14T05:20:12;8.50;99.90
26224;DHT22;14820;48.682;8.890;2023-03-14T05:22:38;8.40;99.90
26224;DHT22;14820;48.682;8.890;2023-03-14T05:25:05;8.50;99.90
26224;DHT22;14820;48.682;8.890;2023-03-14T05:27:30;8.50;99.90
26224;DHT22;14820;48.682;8.890;2023-03-14T05:29:56;8.40;99.90
26224;DHT22;14820;48.682;8.890;2023-03-14T05:32:22;8.50;99.90
26224;DHT22;14820;48.682;8.890;2023-03-14T05:34:47;8.50;99.90
26224;DHT22;14820;48.682;8.890;2023-03-14T05:37:13;8.50;99.90
26224;DHT22;14820;48.682;8.890;2023-03-14T05:39:39;8.50;99.90
26224;DHT22;14820;48.682;8.890;2023-03-14T05:42:04;8.40;99.90
26224;DHT22;14820;48.682;8.890;2023-03-14T05:44:30;8.40;99.90
26224;DHT22;14820;48.682;8.890;2023-03-14T05:46:56;8.40;99.90
26224;DHT22;14820;48.682;8.890;2023-03-14T05:49:21;8.50;99.90
26224;DHT22;14820;48.682;8.890;2023-03-14T05:51:47;8.50;99.90
26224;DHT22;14820;48.682;8.890;2023-03-14T05:54:13;8.50;99.90
26224;DHT22;14820;48.682;8.890;2023-03-14T05:56:38;8.50;99.90
26224;DHT22;14820;48.682;8.890;2023-03-14T05:59:04;8.40;99.90
26224;DHT22;14820;48.682;8.890;2023-03-14T06:01:30;8.50;99.90
26224;DHT22;14820;48.682;8.890;2023-03-14T06:03:56;8.40;99.90
26224;DHT22;14820;48.682;8.890;2023-03-14T06:06:22;8.40;99.90
26224;DHT22;14820;48.682;8.890;2023-03-14T06:08:47;8.50;99.90
26224;DHT22;14820;48.682;8.890;2023-03-14T06:11:13;8.40;99.90
26224;DHT22;14820;48.682;8.890;2023-03-14T06:13:39;8.50;99.90
26224;DHT22;14820;48.682;8.890;2023-03-14T06:16:05;8.40;99.90
26224;DHT22;14820;48.682;8.890;2023-03-14T06:18:31;8.50;99.90
26224;DHT22;14820;48.682;8.890;2023-03-14T06:20:57;8.50;99.90
26224;DHT22;14820;48.682;8.890;2023-03-14T06:23:23;8.40;99.90
26224;DHT22;14820;48.682;8.890;2023-03-14T06:25:49;8.40;99.90
26224;DHT22;14820;48.682;8.890;2023-03-14T06:28:14;8.40;99.90
26224;DHT22;14820;48.682;8.890;2023-03-14T06:30:40;8.40;99.90
26224;DHT22;14820;48.682;8.890;2023-03-14T06:33:09;8.40;99.90
26224;DHT22;14820;48.682;8.890;2023-03-14T06:35:35;8.40;99.90
26224;DHT22;14820;48.682;8.890;2023-03-14T06:38:01;8.40;99.90
26224;DHT22;14820;48.682;8.890;2023-03-14T06:40:26;8.40;99.90
26224;DHT22;14820;48.682;8.890;2023-03-14T06:42:52;8.50;99.90
26224;DHT22;14820;48.682;8.890;2023-03-14T06:45:18;8.50;99.90
26224;DHT22;14820;48.682;8.890;2023-03-14T06:47:43;8.50;99.90
26224;DHT22;14820;48.682;8.890;2023-03-14T06:50:10;8.50;99.90
26224;DHT22;14820;48.682;8.890;2023-03-14T06:52:36;8.50;99.90
26224;DHT22;14820;48.682;8.890;2023-03-14T06:55:02;8.50;99.90
26224;DHT22;14820;48.682;8.890;2023-03-14T06:57:28;8.50;99.90
26224;DHT22;14820;48.682;8.890;2023-03-14T06:59:53;8.50;99.90
26224;DHT22;14820;48.682;8.890;2023-03-14T07:02:19;8.50;99.90
26224;DHT22;14820;48.682;8.890;2023-03-14T07:04:45;8.60;99.90
26224;DHT22;14820;48.682;8.890;2023-03-14T07:07:11;8.70;99.90
26224;DHT22;14820;48.682;8.890;2023-03-14T07:09:37;8.70;99.90
26224;DHT22;14820;48.682;8.890;2023-03-14T07:12:03;8.70;99.90
26224;DHT22;14820;48.682;8.890;2023-03-14T07:14:30;8.70;99.90
26224;DHT22;14820;48.682;8.890;2023-03-14T07:16:55;8.80;99.90
26224;DHT22;14820;48.682;8.890;2023-03-14T07:19:21;8.80;99.90
26224;DHT22;14820;48.682;8.890;2023-03-14T07:21:47;8.90;99.90
26224;DHT22;14820;48.682;8.890;2023-03-14T07:24:12;8.90;99.90
26224;DHT22;14820;48.682;8.890;2023-03-14T07:26:38;9.00;99.90
26224;DHT22;14820;48.682;8.890;2023-03-14T07:29:04;9.10;99.90
26224;DHT22;14820;48.682;8.890;2023-03-14T07:31:30;9.20;99.90
26224;DHT22;14820;48.682;8.890;2023-03-14T07:33:56;9.30;99.90
26224;DHT22;14820;48.682;8.890;2023-03-14T07:36:21;9.40;99.90
26224;DHT22;14820;48.682;8.890;2023-03-14T07:38:47;9.40;99.90
26224;DHT22;14820;48.682;8.890;2023-03-14T07:41:13;9.50;99.90
26224;DHT22;14820;48.682;8.890;2023-03-14T07:43:39;9.60;99.90
26224;DHT22;14820;48.682;8.890;2023-03-14T07:46:06;9.70;99.90
26224;DHT22;14820;48.682;8.890;2023-03-14T07:48:31;9.80;99.90
26224;DHT22;14820;48.682;8.890;2023-03-14T07:50:57;9.90;99.90
26224;DHT22;14820;48.682;8.890;2023-03-14T07:53:24;10.00;99.90
26224;DHT22;14820;48.682;8.890;2023-03-14T07:55:53;10.00;99.90
26224;DHT22;14820;48.682;8.890;2023-03-14T07:58:19;10.10;99.90
26224;DHT22;14820;48.682;8.890;2023-03-14T08:00:47;10.10;99.90
26224;DHT22;14820;48.682;8.890;2023-03-14T08:03:13;10.20;99.90
26224;DHT22;14820;48.682;8.890;2023-03-14T08:05:38;10.20;99.90
26224;DHT22;14820;48.682;8.890;2023-03-14T08:08:05;10.30;99.90
26224;DHT22;14820;48.682;8.890;2023-03-14T08:10:31;10.30;99.90
26224;DHT22;14820;48.682;8.890;2023-03-14T08:12:59;10.30;99.90
26224;DHT22;14820;48.682;8.890;2023-03-14T08:15:26;10.40;99.90
26224;DHT22;14820;48.682;8.890;2023-03-14T08:17:53;10.40;99.90
26224;DHT22;14820;48.682;8.890;2023-03-14T08:20:20;10.40;99.90
26224;DHT22;14820;48.682;8.890;2023-03-14T08:22:47;10.30;99.90
26224;DHT22;14820;48.682;8.890;2023-03-14T08:25:12;10.20;99.90
26224;DHT22;14820;48.682;8.890;2023-03-14T08:27:38;10.20;99.90
26224;DHT22;14820;48.682;8.890;2023-03-14T08:30:15;10.10;99.90
26224;DHT22;14820;48.682;8.890;2023-03-14T08:32:41;10.20;99.90
26224;DHT22;14820;48.682;8.890;2023-03-14T08:35:08;10.30;99.90
26224;DHT22;14820;48.682;8.890;2023-03-14T08:37:34;10.40;99.90
26224;DHT22;14820;48.682;8.890;2023-03-14T08:40:01;10.40;99.90
26224;DHT22;14820;48.682;8.890;2023-03-14T08:42:32;10.40;99.90
26224;DHT22;14820;48.682;8.890;2023-03-14T08:44:58;10.30;99.90
26224;DHT22;14820;48.682;8.890;2023-03-14T08:47:23;10.30;99.90
26224;DHT22;14820;48.682;8.890;2023-03-14T08:49:49;10.20;99.90
26224;DHT22;14820;48.682;8.890;2023-03-14T08:52:15;10.10;99.90
26224;DHT22;14820;48.682;8.890;2023-03-14T08:54:44;10.10;99.90
26224;DHT22;14820;48.682;8.890;2023-03-14T08:57:10;10.00;99.90
26224;DHT22;14820;48.682;8.890;2023-03-14T08:59:37;9.90;99.90
26224;DHT22;14820;48.682;8.890;2023-03-14T09:02:03;9.90;99.90
26224;DHT22;14820;48.682;8.890;2023-03-14T09:04:32;9.80;99.90
26224;DHT22;14820;48.682;8.890;2023-03-14T09:06:58;9.80;99.90
26224;DHT22;14820;48.682;8.890;2023-03-14T09:09:27;9.80;99.90
26224;DHT22;14820;48.682;8.890;2023-03-14T09:11:53;9.80;99.90
26224;DHT22;14820;48.682;8.890;2023-03-14T09:14:18;9.80;99.90
26224;DHT22;14820;48.682;8.890;2023-03-14T09:16:44;9.80;99.90
26224;DHT22;14820;48.682;8.890;2023-03-14T09:19:10;9.90;99.90
26224;DHT22;14820;48.682;8.890;2023-03-14T09:21:36;9.90;99.90
26224;DHT22;14820;48.682;8.890;2023-03-14T09:24:04;9.90;99.90
26224;DHT22;14820;48.682;8.890;2023-03-14T09:26:30;9.90;99.90
26224;DHT22;14820;48.682;8.890;2023-03-14T09:28:56;10.00;99.90
26224;DHT22;14820;48.682;8.890;2023-03-14T09:31:22;10.00;99.90
26224;DHT22;14820;48.682;8.890;2023-03-14T09:33:48;10.00;99.90
26224;DHT22;14820;48.682;8.890;2023-03-14T09:36:14;10.10;99.90
26224;DHT22;14820;48.682;8.890;2023-03-14T09:38:39;10.10;99.90
26224;DHT22;14820;48.682;8.890;2023-03-14T09:43:45;10.20;99.90
26224;DHT22;14820;48.682;8.890;2023-03-14T09:46:12;10.20;99.90
26224;DHT22;14820;48.682;8.890;2023-03-14T09:48:39;10.30;99.90
26224;DHT22;14820;48.682;8.890;2023-03-14T09:51:14;10.30;99.90
26224;DHT22;14820;48.682;8.890;2023-03-14T09:53:44;10.40;99.90
26224;DHT22;14820;48.682;8.890;2023-03-14T09:58:47;10.60;99.90
26224;DHT22;14820;48.682;8.890;2023-03-14T10:01:16;10.90;99.90
26224;DHT22;14820;48.682;8.890;2023-03-14T10:03:45;11.10;99.90
26224;DHT22;14820;48.682;8.890;2023-03-14T10:06:12;11.20;99.90
26224;DHT22;14820;48.682;8.890;2023-03-14T10:08:43;11.30;99.90
26224;DHT22;14820;48.682;8.890;2023-03-14T10:11:17;11.40;99.90
26224;DHT22;14820;48.682;8.890;2023-03-14T10:14:07;11.30;99.90
26224;DHT22;14820;48.682;8.890;2023-03-14T10:16:44;11.20;99.90
26224;DHT22;14820;48.682;8.890;2023-03-14T10:19:13;11.10;99.90
26224;DHT22;14820;48.682;8.890;2023-03-14T10:21:44;11.00;99.90
26224;DHT22;14820;48.682;8.890;2023-03-14T10:24:22;11.00;99.90
26224;DHT22;14820;48.682;8.890;2023-03-14T10:27:05;11.10;99.90
26224;DHT22;14820;48.682;8.890;2023-03-14T10:29:33;11.10;99.90
26224;DHT22;14820;48.682;8.890;2023-03-14T10:32:04;11.10;99.90
26224;DHT22;14820;48.682;8.890;2023-03-14T10:34:35;11.10;99.90
26224;DHT22;14820;48.682;8.890;2023-03-14T10:37:23;11.00;99.90
26224;DHT22;14820;48.682;8.890;2023-03-14T10:39:53;10.90;99.90
26224;DHT22;14820;48.682;8.890;2023-03-14T10:42:28;10.90;99.90
26224;DHT22;14820;48.682;8.890;2023-03-14T10:45:06;10.80;99.90
26224;DHT22;14820;48.682;8.890;2023-03-14T10:47:49;10.60;99.90
26224;DHT22;14820;48.682;8.890;2023-03-14T10:50:29;10.60;99.90
26224;DHT22;14820;48.682;8.890;2023-03-14T10:52:56;10.50;99.90
26224;DHT22;14820;48.682;8.890;2023-03-14T10:55:24;10.60;99.90
26224;DHT22;14820;48.682;8.890;2023-03-14T10:57:57;10.60;99.90
26224;DHT22;14820;48.682;8.890;2023-03-14T11:00:23;10.60;99.90
26224;DHT22;14820;48.682;8.890;2023-03-14T11:03:10;10.70;99.90
26224;DHT22;14820;48.682;8.890;2023-03-14T11:06:10;10.60;99.90
26224;DHT22;14820;48.682;8.890;2023-03-14T11:08:45;10.50;99.90
26224;DHT22;14820;48.682;8.890;2023-03-14T11:11:23;10.40;99.90
26224;DHT22;14820;48.682;8.890;2023-03-14T11:16:39;10.30;99.90
26224;DHT22;14820;48.682;8.890;2023-03-14T11:22:09;10.10;99.90
26224;DHT22;14820;48.682;8.890;2023-03-14T11:27:48;10.00;99.90
26224;DHT22;14820;48.682;8.890;2023-03-14T11:30:22;9.90;99.90
26224;DHT22;14820;48.682;8.890;2023-03-14T11:33:13;10.00;99.90
26224;DHT22;14820;48.682;8.890;2023-03-14T11:38:32;10.10;99.90
26224;DHT22;14820;48.682;8.890;2023-03-14T11:41:23;10.10;99.90
26224;DHT22;14820;48.682;8.890;2023-03-14T11:43:54;10.10;99.90
26224;DHT22;14820;48.682;8.890;2023-03-14T11:46:40;10.10;99.90
26224;DHT22;14820;48.682;8.890;2023-03-14T11:49:19;10.00;99.90
26224;DHT22;14820;48.682;8.890;2023-03-14T11:51:56;9.90;99.90
26224;DHT22;14820;48.682;8.890;2023-03-14T11:54:45;9.90;99.90
26224;DHT22;14820;48.682;8.890;2023-03-14T11:57:14;9.80;99.90
26224;DHT22;14820;48.682;8.890;2023-03-14T12:13:12;9.70;99.90
26224;DHT22;14820;48.682;8.890;2023-03-14T12:15:41;9.70;99.90
26224;DHT22;14820;48.682;8.890;2023-03-14T12:18:26;9.80;99.90
26224;DHT22;14820;48.682;8.890;2023-03-14T12:20:56;9.80;99.90
26224;DHT22;14820;48.682;8.890;2023-03-14T12:23:23;9.80;99.90
26224;DHT22;14820;48.682;8.890;2023-03-14T12:28:41;9.80;99.90
26224;DHT22;14820;48.682;8.890;2023-03-14T12:34:02;9.90;99.90
26224;DHT22;14820;48.682;8.890;2023-03-14T12:36:58;9.90;99.90
26224;DHT22;14820;48.682;8.890;2023-03-14T12:39:43;9.90;99.90
26224;DHT22;14820;48.682;8.890;2023-03-14T12:42:17;9.80;99.90
26224;DHT22;14820;48.682;8.890;2023-03-14T12:44:50;9.80;99.90
26224;DHT22;14820;48.682;8.890;2023-03-14T12:49:53;9.40;99.90
26224;DHT22;14820;48.682;8.890;2023-03-14T12:52:33;9.30;99.90
26224;DHT22;14820;48.682;8.890;2023-03-14T12:55:06;9.20;99.90
26224;DHT22;14820;48.682;8.890;2023-03-14T13:00:20;9.30;99.90
26224;DHT22;14820;48.682;8.890;2023-03-14T13:02:47;9.60;99.90
26224;DHT22;14820;48.682;8.890;2023-03-14T13:05:21;9.70;99.90
26224;DHT22;14820;48.682;8.890;2023-03-14T13:10:22;9.70;99.90
26224;DHT22;14820;48.682;8.890;2023-03-14T13:15:40;9.20;99.90
26224;DHT22;14820;48.682;8.890;2023-03-14T13:18:16;8.90;99.90
26224;DHT22;14820;48.682;8.890;2023-03-14T13:20:54;8.80;99.90
26224;DHT22;14820;48.682;8.890;2023-03-14T13:23:32;8.60;99.90
26224;DHT22;14820;48.682;8.890;2023-03-14T13:25:59;8.50;99.90
26224;DHT22;14820;48.682;8.890;2023-03-14T13:28:27;8.50;99.90
26224;DHT22;14820;48.682;8.890;2023-03-14T13:31:01;8.40;99.90
26224;DHT22;14820;48.682;8.890;2023-03-14T13:33:28;8.30;99.90
26224;DHT22;14820;48.682;8.890;2023-03-14T13:38:24;8.30;99.90
26224;DHT22;14820;48.682;8.890;2023-03-14T13:40:51;8.30;99.90
26224;DHT22;14820;48.682;8.890;2023-03-14T13:43:21;8.20;99.90
26224;DHT22;14820;48.682;8.890;2023-03-14T13:46:06;8.10;99.90
26224;DHT22;14820;48.682;8.890;2023-03-14T13:48:35;8.20;99.90
26224;DHT22;14820;48.682;8.890;2023-03-14T13:51:11;8.20;99.90
26224;DHT22;14820;48.682;8.890;2023-03-14T13:53:52;8.30;99.90
26224;DHT22;14820;48.682;8.890;2023-03-14T13:56:22;8.30;99.90
26224;DHT22;14820;48.682;8.890;2023-03-14T13:58:49;8.40;99.90
26224;DHT22;14820;48.682;8.890;2023-03-14T14:01:32;8.40;99.90
26224;DHT22;14820;48.682;8.890;2023-03-14T14:04:07;8.40;99.90
26224;DHT22;14820;48.682;8.890;2023-03-14T14:06:38;8.70;99.90
26224;DHT22;14820;48.682;8.890;2023-03-14T14:09:18;8.80;99.90
26224;DHT22;14820;48.682;8.890;2023-03-14T14:11:58;8.70;99.90
26224;DHT22;14820;48.682;8.890;2023-03-14T14:14:32;8.60;99.90
26224;DHT22;14820;48.682;8.890;2023-03-14T14:17:00;8.70;99.90
26224;DHT22;14820;48.682;8.890;2023-03-14T14:19:28;8.50;99.90
26224;DHT22;14820;48.682;8.890;2023-03-14T14:21:55;8.40;99.90
26224;DHT22;14820;48.682;8.890;2023-03-14T14:24:24;8.30;99.90
26224;DHT22;14820;48.682;8.890;2023-03-14T14:26:53;8.20;99.90
26224;DHT22;14820;48.682;8.890;2023-03-14T14:29:32;8.20;99.90
26224;DHT22;14820;48.682;8.890;2023-03-14T14:34:29;8.10;99.90
26224;DHT22;14820;48.682;8.890;2023-03-14T14:36:54;8.10;99.90
26224;DHT22;14820;48.682;8.890;2023-03-14T14:39:23;8.10;99.90
26224;DHT22;14820;48.682;8.890;2023-03-14T14:41:50;8.20;99.90
26224;DHT22;14820;48.682;8.890;2023-03-14T14:44:27;8.20;99.90
26224;DHT22;14820;48.682;8.890;2023-03-14T14:46:55;8.20;99.90
26224;DHT22;14820;48.682;8.890;2023-03-14T14:49:20;8.10;99.90
26224;DHT22;14820;48.682;8.890;2023-03-14T14:51:50;8.20;99.90
26224;DHT22;14820;48.682;8.890;2023-03-14T14:54:31;8.10;99.90
26224;DHT22;14820;48.682;8.890;2023-03-14T14:57:03;8.10;99.90
26224;DHT22;14820;48.682;8.890;2023-03-14T14:59:29;8.10;99.90
26224;DHT22;14820;48.682;8.890;2023-03-14T15:01:58;8.00;99.90
26224;DHT22;14820;48.682;8.890;2023-03-14T15:04:25;8.00;99.90
26224;DHT22;14820;48.682;8.890;2023-03-14T15:06:52;8.00;99.90
26224;DHT22;14820;48.682;8.890;2023-03-14T15:09:19;8.00;99.90
26224;DHT22;14820;48.682;8.890;2023-03-14T15:11:46;7.90;99.90
26224;DHT22;14820;48.682;8.890;2023-03-14T15:14:18;7.90;99.90
26224;DHT22;14820;48.682;8.890;2023-03-14T15:16:45;7.90;99.90
26224;DHT22;14820;48.682;8.890;2023-03-14T15:19:29;7.90;99.90
26224;DHT22;14820;48.682;8.890;2023-03-14T15:21:58;7.80;99.90
26224;DHT22;14820;48.682;8.890;2023-03-14T15:24:24;7.80;99.90
26224;DHT22;14820;48.682;8.890;2023-03-14T15:26:50;7.80;99.90
26224;DHT22;14820;48.682;8.890;2023-03-14T15:29:16;7.80;99.90
26224;DHT22;14820;48.682;8.890;2023-03-14T15:31:45;7.80;99.90
26224;DHT22;14820;48.682;8.890;2023-03-14T15:34:12;7.80;99.90
26224;DHT22;14820;48.682;8.890;2023-03-14T15:36:38;7.90;99.90
26224;DHT22;14820;48.682;8.890;2023-03-14T15:39:05;7.90;99.90
26224;DHT22;14820;48.682;8.890;2023-03-14T15:41:31;7.80;99.90
26224;DHT22;14820;48.682;8.890;2023-03-14T15:44:01;7.90;99.90
26224;DHT22;14820;48.682;8.890;2023-03-14T15:46:31;7.80;99.90
26224;DHT22;14820;48.682;8.890;2023-03-14T15:49:19;7.90;99.90
26224;DHT22;14820;48.682;8.890;2023-03-14T15:51:45;7.80;99.90
26224;DHT22;14820;48.682;8.890;2023-03-14T15:54:11;7.80;99.90
26224;DHT22;14820;48.682;8.890;2023-03-14T15:56:36;7.80;99.90
26224;DHT22;14820;48.682;8.890;2023-03-14T15:59:02;7.90;99.90
26224;DHT22;14820;48.682;8.890;2023-03-14T16:01:32;8.00;99.90
26224;DHT22;14820;48.682;8.890;2023-03-14T16:04:07;8.00;99.90
26224;DHT22;14820;48.682;8.890;2023-03-14T16:06:32;8.10;99.90
26224;DHT22;14820;48.682;8.890;2023-03-14T16:08:58;8.10;99.90
26224;DHT22;14820;48.682;8.890;2023-03-14T16:11:26;8.30;99.90
26224;DHT22;14820;48.682;8.890;2023-03-14T16:14:02;8.40;99.90
26224;DHT22;14820;48.682;8.890;2023-03-14T16:16:34;8.40;99.90
26224;DHT22;14820;48.682;8.890;2023-03-14T16:19:00;8.40;99.90
26224;DHT22;14820;48.682;8.890;2023-03-14T16:21:26;8.20;99.90
26224;DHT22;14820;48.682;8.890;2023-03-14T16:23:51;8.20;99.90
26224;DHT22;14820;48.682;8.890;2023-03-14T16:26:29;8.10;99.90
26224;DHT22;14820;48.682;8.890;2023-03-14T16:28:59;8.10;99.90
26224;DHT22;14820;48.682;8.890;2023-03-14T16:31:25;8.10;99.90
26224;DHT22;14820;48.682;8.890;2023-03-14T16:33:51;8.00;99.90
26224;DHT22;14820;48.682;8.890;2023-03-14T16:36:17;8.00;99.90
26224;DHT22;14820;48.682;8.890;2023-03-14T16:38:44;8.00;99.90
26224;DHT22;14820;48.682;8.890;2023-03-14T16:41:17;7.90;99.90
26224;DHT22;14820;48.682;8.890;2023-03-14T16:43:44;7.80;99.90
26224;DHT22;14820;48.682;8.890;2023-03-14T16:46:22;7.80;99.90
26224;DHT22;14820;48.682;8.890;2023-03-14T16:48:54;7.80;99.90